Time;durP1;ratioP1;P1;durP2;ratioP2;P2;SDS_P1;SDS_P2;PMS_P1;PMS_P2;Temp;Humidity;BMP_temperature;BMP_pressure;BME280_temperature;BME280_humidity;BME280_pressure;Samples;Min_cycle;Max_cycle;Signal;HPM_P1;HPM_P2
2023/04/18 00:00:05;;;;;;;;;;;9.90;69.50;;;;;;5073809;28;19912;-31
2023/04/18 00:02:32;;;;;;;;;;;9.80;69.20;;;;;;5073747;28;19916;-41
2023/04/18 00:04:57;;;;;;;;;;;9.80;69.00;;;;;;5073707;28;19912;-26
2023/04/18 00:07:23;;;;;;;;;;;9.80;68.50;;;;;;5073782;28;19935;-27
2023/04/18 00:09:48;;;;;;;;;;;9.70;68.30;;;;;;5072011;28;19912;-26
2023/04/18 00:12:14;;;;;;;;;;;9.70;68.30;;;;;;5073386;28;19913;-31
2023/04/18 00:14:39;;;;;;;;;;;9.70;68.40;;;;;;5073522;28;20379;-26
2023/04/18 00:17:09;;;;;;;;;;;9.70;68.30;;;;;;5071844;28;20243;-33
2023/04/18 00:19:41;;;;;;;;;;;9.60;68.20;;;;;;5073492;28;19947;-28
2023/04/18 00:22:08;;;;;;;;;;;9.60;68.30;;;;;;5073374;28;19936;-26
2023/04/18 00:24:33;;;;;;;;;;;9.60;67.60;;;;;;5073384;28;20364;-27
2023/04/18 00:27:00;;;;;;;;;;;9.50;67.70;;;;;;5073434;28;19962;-27
2023/04/18 00:29:25;;;;;;;;;;;9.50;67.60;;;;;;5073079;28;20291;-28
2023/04/18 00:31:51;;;;;;;;;;;9.40;67.50;;;;;;5073226;28;19912;-27
2023/04/18 00:34:16;;;;;;;;;;;9.40;67.20;;;;;;5073262;28;19912;-27
2023/04/18 00:36:42;;;;;;;;;;;9.30;67.10;;;;;;5073136;28;19917;-30
2023/04/18 00:39:07;;;;;;;;;;;9.30;67.00;;;;;;5073116;28;19913;-27
2023/04/18 00:41:33;;;;;;;;;;;9.20;67.00;;;;;;5073040;28;19916;-27
2023/04/18 00:43:58;;;;;;;;;;;9.20;66.40;;;;;;5072969;28;19912;-33
2023/04/18 00:46:24;;;;;;;;;;;9.10;66.40;;;;;;5073035;28;20346;-29
2023/04/18 00:48:49;;;;;;;;;;;9.10;66.20;;;;;;5072924;28;19969;-28
2023/04/18 00:51:15;;;;;;;;;;;9.10;66.20;;;;;;5072729;28;19939;-28
2023/04/18 00:53:41;;;;;;;;;;;9.00;66.30;;;;;;5072716;28;19912;-29
2023/04/18 00:56:07;;;;;;;;;;;8.90;66.40;;;;;;5072626;28;19995;-28
2023/04/18 00:58:32;;;;;;;;;;;8.90;66.40;;;;;;5072801;28;19951;-28
2023/04/18 01:00:58;;;;;;;;;;;8.80;66.20;;;;;;5072566;28;19912;-33
2023/04/18 01:03:26;;;;;;;;;;;8.80;66.30;;;;;;5072593;28;20361;-32
2023/04/18 01:05:52;;;;;;;;;;;8.80;66.40;;;;;;5072661;28;19965;-29
2023/04/18 01:08:18;;;;;;;;;;;8.70;66.30;;;;;;5072721;28;20336;-27
2023/04/18 01:10:43;;;;;;;;;;;8.70;66.30;;;;;;5072397;28;19919;-27
2023/04/18 01:13:13;;;;;;;;;;;8.60;66.10;;;;;;5072273;28;19912;-26
2023/04/18 01:15:39;;;;;;;;;;;8.60;66.40;;;;;;5072332;28;19996;-35
2023/04/18 01:18:06;;;;;;;;;;;8.50;66.20;;;;;;5072173;28;20232;-27
2023/04/18 01:20:34;;;;;;;;;;;8.50;66.40;;;;;;5072185;28;20343;-25
2023/04/18 01:22:59;;;;;;;;;;;8.50;66.40;;;;;;5072103;28;19923;-25
2023/04/18 01:25:25;;;;;;;;;;;8.50;66.50;;;;;;5072275;28;20007;-28
2023/04/18 01:27:50;;;;;;;;;;;8.50;66.60;;;;;;5072125;28;20007;-27
2023/04/18 01:30:16;;;;;;;;;;;8.40;66.50;;;;;;5071493;28;20314;-25
2023/04/18 01:32:43;;;;;;;;;;;8.40;66.60;;;;;;5072233;28;19920;-27
2023/04/18 01:35:08;;;;;;;;;;;8.40;66.50;;;;;;5071966;28;20302;-26
2023/04/18 01:37:34;;;;;;;;;;;8.40;66.40;;;;;;5072067;28;19912;-28
2023/04/18 01:39:59;;;;;;;;;;;8.30;66.40;;;;;;5072035;28;19912;-25
2023/04/18 01:42:25;;;;;;;;;;;8.30;66.10;;;;;;5071828;28;19924;-30
2023/04/18 01:44:50;;;;;;;;;;;8.30;66.10;;;;;;5072243;28;19999;-27
2023/04/18 01:47:16;;;;;;;;;;;8.30;66.00;;;;;;5071843;28;19912;-26
2023/04/18 01:49:45;;;;;;;;;;;8.20;66.20;;;;;;5072116;28;19913;-30
2023/04/18 01:52:13;;;;;;;;;;;8.20;66.30;;;;;;5072006;28;20003;-26
2023/04/18 01:54:38;;;;;;;;;;;8.20;66.20;;;;;;5072093;28;19995;-24
2023/04/18 01:57:04;;;;;;;;;;;8.10;66.20;;;;;;5071804;28;19994;-25
2023/04/18 01:59:29;;;;;;;;;;;8.10;66.00;;;;;;5071775;28;19966;-27
2023/04/18 02:01:55;;;;;;;;;;;8.10;66.00;;;;;;5071526;28;20271;-26
2023/04/18 02:04:20;;;;;;;;;;;8.10;66.10;;;;;;5070609;28;19919;-27
2023/04/18 02:06:46;;;;;;;;;;;8.00;66.20;;;;;;5070446;28;19981;-40
2023/04/18 02:09:11;;;;;;;;;;;8.00;66.20;;;;;;5071485;28;20014;-29
2023/04/18 02:11:37;;;;;;;;;;;8.00;66.10;;;;;;5071687;28;20360;-26
2023/04/18 02:14:02;;;;;;;;;;;7.90;66.10;;;;;;5071901;28;19924;-25
2023/04/18 02:16:28;;;;;;;;;;;7.90;66.20;;;;;;5070414;28;20010;-26
2023/04/18 02:18:53;;;;;;;;;;;7.90;66.20;;;;;;5071807;28;20336;-27
2023/04/18 02:21:20;;;;;;;;;;;7.80;66.10;;;;;;5071871;28;19917;-25
2023/04/18 02:23:45;;;;;;;;;;;7.80;66.10;;;;;;5071705;28;19912;-28
2023/04/18 02:26:11;;;;;;;;;;;7.80;66.20;;;;;;5071839;28;19974;-26
2023/04/18 02:28:37;;;;;;;;;;;7.70;66.30;;;;;;5071579;28;19920;-26
2023/04/18 02:31:03;;;;;;;;;;;7.70;66.40;;;;;;5071702;28;19923;-27
2023/04/18 02:33:29;;;;;;;;;;;7.70;66.50;;;;;;5071754;28;20348;-26
2023/04/18 02:35:54;;;;;;;;;;;7.70;66.50;;;;;;5071704;28;19912;-31
2023/04/18 02:38:20;;;;;;;;;;;7.70;66.60;;;;;;5071985;28;19913;-27
2023/04/18 02:40:45;;;;;;;;;;;7.60;66.60;;;;;;5073216;28;19912;-27
2023/04/18 02:43:11;;;;;;;;;;;7.60;66.60;;;;;;5075417;28;19973;-29
2023/04/18 02:45:36;;;;;;;;;;;7.60;66.70;;;;;;5075483;28;19912;-47
2023/04/18 02:48:02;;;;;;;;;;;7.60;66.70;;;;;;5075461;28;20318;-27
2023/04/18 02:50:28;;;;;;;;;;;7.60;66.80;;;;;;5075266;28;20422;-26
2023/04/18 02:52:54;;;;;;;;;;;7.60;66.90;;;;;;5075163;28;19912;-27
2023/04/18 02:55:20;;;;;;;;;;;7.60;66.90;;;;;;5075344;28;20384;-26
2023/04/18 02:57:46;;;;;;;;;;;7.50;66.90;;;;;;5075141;28;19913;-27
2023/04/18 03:00:12;;;;;;;;;;;7.50;66.90;;;;;;5075052;28;20427;-28
2023/04/18 03:02:38;;;;;;;;;;;7.50;67.00;;;;;;5074915;28;19969;-26
2023/04/18 03:05:04;;;;;;;;;;;7.50;67.10;;;;;;5075041;28;20015;-27
2023/04/18 03:07:30;;;;;;;;;;;7.40;67.10;;;;;;5075179;28;19912;-29
2023/04/18 03:09:55;;;;;;;;;;;7.40;67.20;;;;;;5075554;28;20249;-28
2023/04/18 03:12:21;;;;;;;;;;;7.40;67.30;;;;;;5075121;28;19966;-28
2023/04/18 03:14:46;;;;;;;;;;;7.30;67.30;;;;;;5074954;28;19983;-30
2023/04/18 03:17:12;;;;;;;;;;;7.30;67.40;;;;;;5074856;28;19985;-26
2023/04/18 03:19:37;;;;;;;;;;;7.30;67.50;;;;;;5074956;28;20345;-26
2023/04/18 03:22:02;;;;;;;;;;;7.30;67.70;;;;;;5074712;28;19920;-27
2023/04/18 03:24:28;;;;;;;;;;;7.20;67.70;;;;;;5074743;28;19958;-28
2023/04/18 03:26:53;;;;;;;;;;;7.20;67.80;;;;;;5074860;28;20308;-28
2023/04/18 03:29:19;;;;;;;;;;;7.20;67.90;;;;;;5074655;28;20014;-26
2023/04/18 03:31:44;;;;;;;;;;;7.20;68.00;;;;;;5074588;28;19912;-26
2023/04/18 03:34:10;;;;;;;;;;;7.20;68.00;;;;;;5074667;28;19962;-27
2023/04/18 03:36:35;;;;;;;;;;;7.20;68.00;;;;;;5074532;28;19962;-30
2023/04/18 03:39:01;;;;;;;;;;;7.20;68.00;;;;;;5074470;28;19999;-26
2023/04/18 03:41:27;;;;;;;;;;;7.30;68.00;;;;;;5074379;28;19924;-27
2023/04/18 03:43:52;;;;;;;;;;;7.30;68.00;;;;;;5074454;28;19967;-29
2023/04/18 03:46:18;;;;;;;;;;;7.30;67.90;;;;;;5074414;28;19913;-26
2023/04/18 03:48:43;;;;;;;;;;;7.40;68.00;;;;;;5074455;28;20356;-30
2023/04/18 03:51:09;;;;;;;;;;;7.40;67.90;;;;;;5074177;28;19916;-26
2023/04/18 03:53:35;;;;;;;;;;;7.50;67.90;;;;;;5073652;28;20475;-28
2023/04/18 03:56:00;;;;;;;;;;;7.50;67.90;;;;;;5074260;28;19920;-26
2023/04/18 03:58:26;;;;;;;;;;;7.50;67.90;;;;;;5074218;28;19946;-27
2023/04/18 04:00:51;;;;;;;;;;;7.50;67.90;;;;;;5074554;28;19993;-26
2023/04/18 04:03:17;;;;;;;;;;;7.50;67.90;;;;;;5073912;28;19977;-28
2023/04/18 04:05:42;;;;;;;;;;;7.60;68.00;;;;;;5074018;28;19923;-29
2023/04/18 04:08:08;;;;;;;;;;;7.50;68.00;;;;;;5073990;28;19962;-26
2023/04/18 04:10:34;;;;;;;;;;;7.60;68.20;;;;;;5073921;28;20356;-29
2023/04/18 04:12:59;;;;;;;;;;;7.50;68.20;;;;;;5073884;28;19913;-26
2023/04/18 04:15:25;;;;;;;;;;;7.60;68.40;;;;;;5073917;28;19912;-37
2023/04/18 04:17:50;;;;;;;;;;;7.60;68.40;;;;;;5073688;28;19912;-26
2023/04/18 04:20:21;;;;;;;;;;;7.60;68.40;;;;;;5073614;28;19913;-28
2023/04/18 04:22:47;;;;;;;;;;;7.60;68.40;;;;;;5073515;28;19985;-28
2023/04/18 04:25:12;;;;;;;;;;;7.70;68.40;;;;;;5073430;28;19916;-26
2023/04/18 04:27:38;;;;;;;;;;;7.70;68.40;;;;;;5073407;28;20467;-26
2023/04/18 04:30:05;;;;;;;;;;;7.70;68.60;;;;;;5073252;28;19928;-26
2023/04/18 04:32:31;;;;;;;;;;;7.80;68.50;;;;;;5073532;28;19920;-28
2023/04/18 04:34:57;;;;;;;;;;;7.80;68.70;;;;;;5073288;28;19919;-28
2023/04/18 04:37:23;;;;;;;;;;;7.80;68.60;;;;;;5073232;28;19916;-28
2023/04/18 04:39:48;;;;;;;;;;;7.80;68.60;;;;;;5073247;28;19952;-32
2023/04/18 04:42:14;;;;;;;;;;;7.80;68.70;;;;;;5072947;28;19917;-27
2023/04/18 04:44:42;;;;;;;;;;;7.90;68.80;;;;;;5073261;28;19947;-44
2023/04/18 04:47:08;;;;;;;;;;;7.90;68.90;;;;;;5073039;28;19913;-31
2023/04/18 04:49:33;;;;;;;;;;;7.90;69.00;;;;;;5072953;28;20457;-31
2023/04/18 04:51:59;;;;;;;;;;;7.90;69.10;;;;;;5072993;28;19913;-27
2023/04/18 04:54:25;;;;;;;;;;;7.90;69.20;;;;;;5073063;28;19908;-26
2023/04/18 04:56:50;;;;;;;;;;;7.90;69.20;;;;;;5073141;28;19991;-27
2023/04/18 04:59:16;;;;;;;;;;;7.90;69.70;;;;;;5073005;28;19916;-27
2023/04/18 05:01:41;;;;;;;;;;;7.80;69.60;;;;;;5072890;28;20448;-28
2023/04/18 05:04:07;;;;;;;;;;;7.80;69.60;;;;;;5071926;28;19912;-26
2023/04/18 05:06:32;;;;;;;;;;;7.90;69.90;;;;;;5072985;28;20483;-28
2023/04/18 05:08:59;;;;;;;;;;;7.80;69.70;;;;;;5072805;28;19909;-28
2023/04/18 05:11:25;;;;;;;;;;;7.90;69.70;;;;;;5072635;28;19909;-28
2023/04/18 05:13:51;;;;;;;;;;;7.90;69.90;;;;;;5072692;28;20220;-26
2023/04/18 05:16:16;;;;;;;;;;;7.90;69.80;;;;;;5072631;28;19908;-27
2023/04/18 05:18:42;;;;;;;;;;;8.00;69.90;;;;;;5072542;28;20007;-30
2023/04/18 05:21:07;;;;;;;;;;;8.00;70.10;;;;;;5072188;28;20357;-27
2023/04/18 05:23:36;;;;;;;;;;;8.00;70.00;;;;;;5072207;28;19944;-38
2023/04/18 05:26:02;;;;;;;;;;;8.00;70.30;;;;;;5072211;28;19908;-30
2023/04/18 05:28:28;;;;;;;;;;;8.00;70.30;;;;;;5072213;28;19974;-26
2023/04/18 05:30:59;;;;;;;;;;;8.00;70.30;;;;;;5072364;28;19908;-26
2023/04/18 05:33:28;;;;;;;;;;;8.00;70.20;;;;;;5072447;28;19909;-27
2023/04/18 05:35:55;;;;;;;;;;;8.10;70.20;;;;;;5072270;28;19908;-26
2023/04/18 05:38:21;;;;;;;;;;;8.20;70.20;;;;;;5072241;28;19954;-26
2023/04/18 05:40:47;;;;;;;;;;;8.20;70.40;;;;;;5072019;28;20293;-30
2023/04/18 05:43:12;;;;;;;;;;;8.20;70.30;;;;;;5071912;28;20045;-25
2023/04/18 05:45:38;;;;;;;;;;;8.30;70.20;;;;;;5071918;28;20268;-28
2023/04/18 05:48:03;;;;;;;;;;;8.40;70.40;;;;;;5072090;28;19912;-29
2023/04/18 05:50:29;;;;;;;;;;;8.40;70.40;;;;;;5072179;28;19909;-27
2023/04/18 05:52:57;;;;;;;;;;;8.40;70.70;;;;;;5072048;28;19999;-26
2023/04/18 05:55:23;;;;;;;;;;;8.40;70.50;;;;;;5072003;28;20317;-29
2023/04/18 05:57:49;;;;;;;;;;;8.40;70.70;;;;;;5071865;28;19983;-25
2023/04/18 06:00:15;;;;;;;;;;;8.40;70.60;;;;;;5070282;28;19948;-32
2023/04/18 06:02:41;;;;;;;;;;;8.50;70.60;;;;;;5071442;28;20011;-25
2023/04/18 06:05:07;;;;;;;;;;;8.50;70.50;;;;;;5071203;28;19940;-26
2023/04/18 06:07:33;;;;;;;;;;;8.60;70.60;;;;;;5071772;28;20010;-29
2023/04/18 06:09:58;;;;;;;;;;;8.60;70.60;;;;;;5071801;28;19908;-28
2023/04/18 06:12:24;;;;;;;;;;;8.70;70.60;;;;;;5071579;28;20367;-30
2023/04/18 06:14:50;;;;;;;;;;;8.80;70.70;;;;;;5071700;28;19999;-25
2023/04/18 06:17:15;;;;;;;;;;;8.80;71.00;;;;;;5075633;28;19920;-29
2023/04/18 06:19:40;;;;;;;;;;;8.80;70.80;;;;;;5075785;28;19909;-27
2023/04/18 06:22:06;;;;;;;;;;;8.90;70.90;;;;;;5075385;28;19975;-27
2023/04/18 06:24:32;;;;;;;;;;;8.90;70.80;;;;;;5075609;28;20304;-26
2023/04/18 06:26:57;;;;;;;;;;;8.90;70.80;;;;;;5075294;28;20378;-26
2023/04/18 06:29:26;;;;;;;;;;;8.90;70.70;;;;;;5075225;28;20007;-29
2023/04/18 06:31:51;;;;;;;;;;;9.00;70.90;;;;;;5075489;28;19920;-29
2023/04/18 06:34:16;;;;;;;;;;;9.00;71.00;;;;;;5075228;28;20352;-26
2023/04/18 06:36:42;;;;;;;;;;;9.10;71.10;;;;;;5075358;28;19995;-26
2023/04/18 06:39:07;;;;;;;;;;;9.10;71.40;;;;;;5073779;28;20005;-27
2023/04/18 06:41:33;;;;;;;;;;;9.20;71.30;;;;;;5075072;28;20062;-29
2023/04/18 06:43:58;;;;;;;;;;;9.20;71.20;;;;;;5074933;28;19909;-26
2023/04/18 06:46:24;;;;;;;;;;;9.30;71.20;;;;;;5075022;28;20050;-27
2023/04/18 06:48:50;;;;;;;;;;;9.40;71.00;;;;;;5074994;28;19915;-38
2023/04/18 06:51:15;;;;;;;;;;;9.50;71.20;;;;;;5073601;28;19962;-31
2023/04/18 06:53:41;;;;;;;;;;;9.50;70.80;;;;;;5074942;28;19908;-25
2023/04/18 06:56:06;;;;;;;;;;;9.50;71.50;;;;;;5074884;28;19908;-28
2023/04/18 06:58:32;;;;;;;;;;;9.60;72.00;;;;;;5073487;28;19916;-27
2023/04/18 07:00:57;;;;;;;;;;;9.70;71.80;;;;;;5074724;28;19931;-26
2023/04/18 07:03:23;;;;;;;;;;;9.80;71.70;;;;;;5074423;28;19980;-26
2023/04/18 07:05:49;;;;;;;;;;;9.80;71.80;;;;;;5074628;28;20265;-32
2023/04/18 07:08:15;;;;;;;;;;;10.00;71.80;;;;;;5074560;28;19908;-27
2023/04/18 07:10:41;;;;;;;;;;;10.10;71.60;;;;;;5074637;28;19915;-27
2023/04/18 07:13:06;;;;;;;;;;;10.20;71.90;;;;;;5074576;28;20492;-28
2023/04/18 07:15:35;;;;;;;;;;;10.30;70.80;;;;;;5074699;28;20016;-26
2023/04/18 07:18:00;;;;;;;;;;;10.30;70.50;;;;;;5074531;28;19909;-30
2023/04/18 07:20:26;;;;;;;;;;;10.40;70.90;;;;;;5074652;28;19908;-26
2023/04/18 07:22:51;;;;;;;;;;;10.30;72.20;;;;;;5073348;28;19913;-27
2023/04/18 07:25:18;;;;;;;;;;;10.20;71.60;;;;;;5073325;28;19962;-28
2023/04/18 07:27:43;;;;;;;;;;;10.10;74.20;;;;;;5073449;28;19962;-32
2023/04/18 07:30:09;;;;;;;;;;;10.10;74.20;;;;;;5074569;28;19912;-26
2023/04/18 07:32:35;;;;;;;;;;;10.10;73.40;;;;;;5074562;28;20356;-26
2023/04/18 07:35:00;;;;;;;;;;;10.10;72.40;;;;;;5074379;28;19966;-27
2023/04/18 07:37:26;;;;;;;;;;;10.10;72.70;;;;;;5074499;28;20226;-29
2023/04/18 07:39:51;;;;;;;;;;;10.10;73.30;;;;;;5074283;28;19944;-25
2023/04/18 07:42:17;;;;;;;;;;;10.20;73.40;;;;;;5074083;28;19912;-29
2023/04/18 07:44:43;;;;;;;;;;;10.40;73.60;;;;;;5072985;28;19913;-38
2023/04/18 07:47:09;;;;;;;;;;;10.50;74.00;;;;;;5074222;28;20348;-29
2023/04/18 07:49:34;;;;;;;;;;;10.70;74.20;;;;;;5074245;28;19908;-29
2023/04/18 07:52:00;;;;;;;;;;;10.80;72.60;;;;;;5074497;28;19935;-27
2023/04/18 07:54:25;;;;;;;;;;;10.80;73.10;;;;;;5074098;28;19951;-26
2023/04/18 07:56:51;;;;;;;;;;;10.90;73.50;;;;;;5074174;28;19908;-27
2023/04/18 07:59:16;;;;;;;;;;;10.90;74.40;;;;;;5074119;28;20409;-27
2023/04/18 08:01:42;;;;;;;;;;;10.90;73.10;;;;;;5074134;28;19916;-26
2023/04/18 08:04:07;;;;;;;;;;;10.90;71.60;;;;;;5073944;28;19908;-33
2023/04/18 08:06:33;;;;;;;;;;;11.00;75.00;;;;;;5073954;28;19909;-28
2023/04/18 08:09:03;;;;;;;;;;;11.10;75.40;;;;;;5073786;28;19915;-38
2023/04/18 08:11:28;;;;;;;;;;;11.20;74.00;;;;;;5073539;28;19912;-29
2023/04/18 08:13:54;;;;;;;;;;;11.20;74.60;;;;;;5073665;28;19908;-27
2023/04/18 08:16:19;;;;;;;;;;;11.30;75.30;;;;;;5073665;28;19909;-27
2023/04/18 08:18:45;;;;;;;;;;;11.30;73.60;;;;;;5073458;28;19908;-28
2023/04/18 08:21:11;;;;;;;;;;;11.30;72.80;;;;;;5073366;28;19909;-27
2023/04/18 08:23:36;;;;;;;;;;;11.30;73.30;;;;;;5073683;28;20283;-37
2023/04/18 08:26:02;;;;;;;;;;;11.40;72.80;;;;;;5073390;28;19915;-26
2023/04/18 08:28:27;;;;;;;;;;;11.40;74.70;;;;;;5073163;28;20322;-31
2023/04/18 08:30:54;;;;;;;;;;;11.40;75.10;;;;;;5073252;28;19918;-26
2023/04/18 08:33:20;;;;;;;;;;;11.50;73.20;;;;;;5073123;28;19908;-28
2023/04/18 08:35:46;;;;;;;;;;;11.50;72.30;;;;;;5073173;28;19915;-27
2023/04/18 08:38:12;;;;;;;;;;;11.50;70.30;;;;;;5072911;28;19995;-31
2023/04/18 08:40:37;;;;;;;;;;;11.60;73.90;;;;;;5073148;28;19912;-28
2023/04/18 08:43:06;;;;;;;;;;;11.70;74.30;;;;;;5072935;28;19942;-27
2023/04/18 08:45:33;;;;;;;;;;;11.80;73.50;;;;;;5073123;28;19908;-27
2023/04/18 08:48:00;;;;;;;;;;;11.90;73.30;;;;;;5072857;28;19908;-26
2023/04/18 08:50:26;;;;;;;;;;;12.00;74.00;;;;;;5072846;28;20244;-45
2023/04/18 08:52:53;;;;;;;;;;;12.10;74.00;;;;;;5071881;28;20375;-28
2023/04/18 08:55:21;;;;;;;;;;;12.20;74.30;;;;;;5072745;28;19909;-27
2023/04/18 08:57:46;;;;;;;;;;;12.30;73.80;;;;;;5072656;28;19939;-27
2023/04/18 09:00:12;;;;;;;;;;;12.40;74.40;;;;;;5072812;28;20333;-27
2023/04/18 09:02:42;;;;;;;;;;;12.40;74.60;;;;;;5072960;28;19912;-45
2023/04/18 09:05:14;;;;;;;;;;;12.50;75.10;;;;;;5072692;28;19909;-46
2023/04/18 09:07:40;;;;;;;;;;;12.50;73.20;;;;;;5072919;28;19909;-46
2023/04/18 09:10:06;;;;;;;;;;;12.50;74.00;;;;;;5072707;28;20383;-46
2023/04/18 09:12:33;;;;;;;;;;;12.50;72.70;;;;;;5072707;28;19954;-48
2023/04/18 09:15:13;;;;;;;;;;;12.50;72.90;;;;;;5071215;28;19934;-45
2023/04/18 09:17:44;;;;;;;;;;;12.50;74.40;;;;;;5072494;28;20250;-45
2023/04/18 09:20:10;;;;;;;;;;;12.50;73.60;;;;;;5072518;28;20283;-43
2023/04/18 09:22:45;;;;;;;;;;;12.60;72.60;;;;;;5072524;28;19916;-39
2023/04/18 09:25:10;;;;;;;;;;;12.60;72.90;;;;;;5072558;28;20402;-39
2023/04/18 09:27:36;;;;;;;;;;;12.80;72.80;;;;;;5072610;28;19916;-37
2023/04/18 09:30:01;;;;;;;;;;;12.80;72.40;;;;;;5072486;28;19969;-40
2023/04/18 09:32:28;;;;;;;;;;;13.00;72.60;;;;;;5072468;28;19919;-37
2023/04/18 09:34:56;;;;;;;;;;;13.00;72.20;;;;;;5072442;28;19915;-39
2023/04/18 09:37:22;;;;;;;;;;;13.00;73.30;;;;;;5071151;28;19915;-39
2023/04/18 09:39:49;;;;;;;;;;;13.10;73.50;;;;;;5072389;28;20010;-37
2023/04/18 09:42:15;;;;;;;;;;;13.10;73.30;;;;;;5072282;28;19912;-41
2023/04/18 09:44:56;;;;;;;;;;;13.20;73.40;;;;;;5072670;28;19932;-39
2023/04/18 09:47:22;;;;;;;;;;;13.30;73.70;;;;;;5072389;28;19919;-42
2023/04/18 09:49:47;;;;;;;;;;;13.30;72.80;;;;;;5073611;28;19908;-39
2023/04/18 09:52:14;;;;;;;;;;;13.30;71.90;;;;;;5079045;28;19936;-40
2023/04/18 09:54:39;;;;;;;;;;;13.40;72.70;;;;;;5079410;28;19909;-38
2023/04/18 09:57:07;;;;;;;;;;;13.50;72.30;;;;;;5079000;28;19908;-41
2023/04/18 09:59:47;;;;;;;;;;;13.50;72.00;;;;;;5078969;28;19958;-41
2023/04/18 10:02:20;;;;;;;;;;;13.50;71.90;;;;;;5078793;28;19916;-41
2023/04/18 10:04:47;;;;;;;;;;;13.60;72.30;;;;;;5078779;28;19909;-41
2023/04/18 10:07:13;;;;;;;;;;;13.50;72.50;;;;;;5078811;28;19936;-41
2023/04/18 10:09:41;;;;;;;;;;;13.50;71.80;;;;;;5078651;28;19909;-38
2023/04/18 10:12:07;;;;;;;;;;;13.50;70.30;;;;;;5078581;28;20000;-38
2023/04/18 10:14:33;;;;;;;;;;;13.50;70.80;;;;;;5078712;28;19982;-40
2023/04/18 10:16:59;;;;;;;;;;;13.60;69.40;;;;;;5078632;28;19927;-38
2023/04/18 10:19:25;;;;;;;;;;;13.60;70.50;;;;;;5078689;28;20265;-37
2023/04/18 10:21:52;;;;;;;;;;;13.70;70.40;;;;;;5078581;28;20240;-41
2023/04/18 10:24:36;;;;;;;;;;;13.70;71.00;;;;;;5078703;28;19908;-38
2023/04/18 10:27:01;;;;;;;;;;;13.80;71.20;;;;;;5078792;28;20003;-39
2023/04/18 10:29:49;;;;;;;;;;;14.00;71.20;;;;;;5078521;28;20422;-39
2023/04/18 10:32:15;;;;;;;;;;;14.10;70.90;;;;;;5078513;28;19908;-39
2023/04/18 10:34:40;;;;;;;;;;;14.10;70.60;;;;;;5078543;28;19915;-38
2023/04/18 10:37:06;;;;;;;;;;;14.20;68.30;;;;;;5078380;28;20327;-38
2023/04/18 10:39:46;;;;;;;;;;;14.30;69.10;;;;;;5078333;28;19967;-39
2023/04/18 10:42:11;;;;;;;;;;;14.30;69.80;;;;;;5078041;28;19912;-41
2023/04/18 10:44:37;;;;;;;;;;;14.50;70.70;;;;;;5078334;28;20379;-38
2023/04/18 10:47:05;;;;;;;;;;;14.50;70.20;;;;;;5078305;28;20283;-42
2023/04/18 10:49:30;;;;;;;;;;;14.40;70.80;;;;;;5078239;28;20122;-37
2023/04/18 10:51:59;;;;;;;;;;;14.40;69.40;;;;;;5078137;28;19948;-37
2023/04/18 10:54:29;;;;;;;;;;;14.30;69.90;;;;;;5078520;28;20002;-39
2023/04/18 10:57:00;;;;;;;;;;;14.30;70.20;;;;;;5078311;28;19924;-39
2023/04/18 10:59:27;;;;;;;;;;;14.20;70.50;;;;;;5078506;28;19909;-37
2023/04/18 11:01:54;;;;;;;;;;;14.20;70.80;;;;;;5076563;28;19917;-41
2023/04/18 11:04:20;;;;;;;;;;;14.30;69.50;;;;;;5074559;28;19908;-38
2023/04/18 11:06:49;;;;;;;;;;;14.20;68.50;;;;;;5074657;28;19962;-39
2023/04/18 11:09:15;;;;;;;;;;;14.30;69.10;;;;;;5074500;28;19915;-42
2023/04/18 11:11:41;;;;;;;;;;;14.30;69.10;;;;;;5074480;28;20284;-42
2023/04/18 11:14:06;;;;;;;;;;;14.30;67.40;;;;;;5074642;28;19913;-39
2023/04/18 11:16:32;;;;;;;;;;;14.30;68.50;;;;;;5074419;28;19908;-41
2023/04/18 11:18:58;;;;;;;;;;;14.40;69.10;;;;;;5074399;28;20253;-38
2023/04/18 11:21:26;;;;;;;;;;;14.60;69.10;;;;;;5074299;28;19909;-40
2023/04/18 11:23:55;;;;;;;;;;;14.80;69.20;;;;;;5074245;28;19984;-41
2023/04/18 11:26:24;;;;;;;;;;;14.90;68.80;;;;;;5074313;28;19913;-40
2023/04/18 11:28:51;;;;;;;;;;;15.00;69.50;;;;;;5074029;28;20399;-39
2023/04/18 11:31:17;;;;;;;;;;;15.00;69.10;;;;;;5074254;28;19913;-34
2023/04/18 11:33:46;;;;;;;;;;;15.00;68.90;;;;;;5074106;28;20383;-27
2023/04/18 11:36:11;;;;;;;;;;;14.90;69.20;;;;;;5073918;28;20379;-42
2023/04/18 11:38:38;;;;;;;;;;;14.80;68.70;;;;;;5073993;28;19938;-29
2023/04/18 11:41:04;;;;;;;;;;;14.60;69.20;;;;;;5074020;28;19909;-28
2023/04/18 11:43:29;;;;;;;;;;;14.50;69.80;;;;;;5073749;28;20326;-28
2023/04/18 11:45:58;;;;;;;;;;;14.50;70.20;;;;;;5073754;28;19908;-28
2023/04/18 11:48:37;;;;;;;;;;;14.50;70.20;;;;;;5073604;28;19908;-29
2023/04/18 11:51:03;;;;;;;;;;;14.50;69.60;;;;;;5073615;28;20940;-27
2023/04/18 11:53:35;;;;;;;;;;;14.50;69.40;;;;;;5073508;28;19912;-26
2023/04/18 11:56:02;;;;;;;;;;;14.60;69.80;;;;;;5073563;28;19915;-27
2023/04/18 11:58:34;;;;;;;;;;;14.60;69.80;;;;;;5073552;28;20003;-28
2023/04/18 12:01:13;;;;;;;;;;;14.60;69.50;;;;;;5073346;28;19909;-29
2023/04/18 12:03:39;;;;;;;;;;;14.60;70.30;;;;;;5073112;28;19916;-31
2023/04/18 12:06:04;;;;;;;;;;;14.60;70.20;;;;;;5073231;28;19909;-27
2023/04/18 12:08:31;;;;;;;;;;;14.50;70.80;;;;;;5073313;28;19908;-28
2023/04/18 12:10:56;;;;;;;;;;;14.60;70.10;;;;;;5073191;28;19908;-33
2023/04/18 12:13:25;;;;;;;;;;;14.70;70.10;;;;;;5072558;28;19916;-28
2023/04/18 12:15:51;;;;;;;;;;;14.80;70.10;;;;;;5073133;28;19909;-27
2023/04/18 12:18:18;;;;;;;;;;;14.90;69.90;;;;;;5073053;28;19913;-30
2023/04/18 12:20:46;;;;;;;;;;;15.00;69.90;;;;;;5073084;28;20440;-28
2023/04/18 12:23:47;;;;;;;;;;;15.00;69.70;;;;;;5072977;28;19920;-29
2023/04/18 12:26:14;;;;;;;;;;;15.00;69.80;;;;;;5070648;28;19978;-27
2023/04/18 12:28:43;;;;;;;;;;;15.00;69.90;;;;;;5072290;28;19960;-26
2023/04/18 12:31:09;;;;;;;;;;;15.10;69.60;;;;;;5072287;28;19909;-30
2023/04/18 12:33:37;;;;;;;;;;;15.20;69.00;;;;;;5072557;28;19978;-36
2023/04/18 12:36:04;;;;;;;;;;;15.20;68.80;;;;;;5072831;28;19912;-29
2023/04/18 12:38:29;;;;;;;;;;;15.20;68.90;;;;;;5072874;28;20466;-30
2023/04/18 12:40:55;;;;;;;;;;;15.20;69.00;;;;;;5071194;28;19909;-30
2023/04/18 12:43:20;;;;;;;;;;;15.20;69.60;;;;;;5072596;28;20322;-32
2023/04/18 12:45:46;;;;;;;;;;;15.30;69.60;;;;;;5072679;28;20178;-28
2023/04/18 12:48:12;;;;;;;;;;;15.30;69.20;;;;;;5072547;28;19908;-28
2023/04/18 12:50:37;;;;;;;;;;;15.40;69.20;;;;;;5072557;28;20010;-30
2023/04/18 12:53:03;;;;;;;;;;;15.50;68.60;;;;;;5071126;28;19965;-34
2023/04/18 12:55:28;;;;;;;;;;;15.40;66.10;;;;;;5072498;28;19992;-34
2023/04/18 12:57:54;;;;;;;;;;;15.40;66.80;;;;;;5070970;28;20005;-29
2023/04/18 13:00:25;;;;;;;;;;;15.30;67.90;;;;;;5072553;28;19908;-26
2023/04/18 13:02:51;;;;;;;;;;;15.30;68.10;;;;;;5072419;28;19983;-27
2023/04/18 13:05:17;;;;;;;;;;;15.30;66.50;;;;;;5072880;28;19991;-28
2023/04/18 13:07:43;;;;;;;;;;;15.20;68.00;;;;;;5072728;28;19912;-28
2023/04/18 13:10:10;;;;;;;;;;;15.20;68.00;;;;;;5072690;28;20540;-27
2023/04/18 13:12:36;;;;;;;;;;;15.20;68.20;;;;;;5072803;28;19908;-29
2023/04/18 13:15:02;;;;;;;;;;;15.20;68.00;;;;;;5072757;28;20426;-31
2023/04/18 13:17:27;;;;;;;;;;;15.20;68.30;;;;;;5072775;28;19908;-28
2023/04/18 13:19:53;;;;;;;;;;;15.20;68.30;;;;;;5073179;28;20000;-27
2023/04/18 13:22:19;;;;;;;;;;;15.20;68.70;;;;;;5072432;28;19916;-31
2023/04/18 13:24:45;;;;;;;;;;;15.20;68.60;;;;;;5071953;28;19985;-28
2023/04/18 13:27:10;;;;;;;;;;;15.20;68.80;;;;;;5072523;28;19908;-30
2023/04/18 13:29:37;;;;;;;;;;;15.20;68.70;;;;;;5071138;28;20272;-36
2023/04/18 13:32:03;;;;;;;;;;;15.20;68.20;;;;;;5072449;28;20352;-31
2023/04/18 13:34:29;;;;;;;;;;;15.30;68.40;;;;;;5072373;28;20046;-28
2023/04/18 13:36:54;;;;;;;;;;;15.40;68.40;;;;;;5072160;28;19908;-30
2023/04/18 13:39:20;;;;;;;;;;;15.60;68.60;;;;;;5072479;28;20357;-25
2023/04/18 13:41:45;;;;;;;;;;;15.70;67.20;;;;;;5072083;28;20364;-26
2023/04/18 13:44:11;;;;;;;;;;;15.70;65.90;;;;;;5072189;28;19909;-28
2023/04/18 13:46:36;;;;;;;;;;;15.70;66.90;;;;;;5072163;28;19917;-26
2023/04/18 13:49:02;;;;;;;;;;;15.80;66.20;;;;;;5072276;28;20300;-27
2023/04/18 13:51:27;;;;;;;;;;;15.80;67.30;;;;;;5072141;28;19908;-29
2023/04/18 13:53:53;;;;;;;;;;;15.90;65.80;;;;;;5072162;28;19909;-28
2023/04/18 13:56:18;;;;;;;;;;;16.00;65.80;;;;;;5072159;28;20337;-29
2023/04/18 13:58:44;;;;;;;;;;;16.10;65.30;;;;;;5072128;28;19909;-29
2023/04/18 14:01:10;;;;;;;;;;;16.40;65.30;;;;;;5072299;28;20372;-32
2023/04/18 14:03:36;;;;;;;;;;;16.50;64.10;;;;;;5072028;28;19912;-29
2023/04/18 14:06:01;;;;;;;;;;;16.60;64.60;;;;;;5072232;28;19930;-28
2023/04/18 14:08:27;;;;;;;;;;;16.60;64.20;;;;;;5072353;28;20003;-27
2023/04/18 14:10:52;;;;;;;;;;;16.60;64.90;;;;;;5072084;28;19913;-30
2023/04/18 14:13:18;;;;;;;;;;;16.70;64.80;;;;;;5072112;28;19963;-28
2023/04/18 14:15:43;;;;;;;;;;;16.80;64.70;;;;;;5072242;28;20404;-28
2023/04/18 14:18:08;;;;;;;;;;;16.90;62.80;;;;;;5072012;28;19909;-31